Tiempo atmosférico en la estación meteorológica de Santillana del Mar, Altamira, Cantabria (150 m.)



Fecha
DESCASC
Temp. máxima en grados centígrados (hora)
DESCASC
Temp. mínima en grados centígrados (hora)
DESCASC
Temp. media en grados centígrados
DESCASC
Racha de viento máxima en m/sg (hora)
DESCASC
Velocidad máxima media en intervalos de 10 minutos(hora)
DESCASC
Precipitaciones diarias en mm
DESCASC
Precipitaciones de 00:00 a 06:00 en mm
DESCASC
Precipitaciones de 06:00 a 12:00 en mm
DESCASC
Precipitaciones de 12:00 a 18:00 en mm
DESCASC
Precipitaciones de 18:00 a 24:00 en mm
DESCASC
18-08-2019 20.9 (10:10) 15.4 (22:40) 18.1 8.89 (14:10) 5.28 (13:40) 29.4 0 4.2 23 2.2
17-08-2019 26.3 (14:20) 14.5 (06:40) 20.4 6.11 (15:00) 4.17 (14:50) 0 0 0 0 0
16-08-2019 24.1 (17:00) 12.5 (07:40) 18.3 7.22 (18:10) 4.72 (18:00) 0 0 0 0 0
15-08-2019 21.5 (14:40) 16.6 (00:00) 19.1 8.61 (01:50) 5.28 (02:00) 17 14.8 2.2 0 0
14-08-2019 24.1 (17:10) 13.1 (00:00) 18.6 8.89 (13:20) 4.44 (14:20) 1.4 0 0 0 1.4
13-08-2019 21.6 (13:20) 12.5 (00:00) 17.1 8.06 (15:10) 5 (14:20) 0 0 0 0 0
12-08-2019 20.1 (15:30) 11.8 (00:00) 16 9.72 (16:00) 4.72 (12:40) 0 0 0 0 0
11-08-2019 18.2 (00:00) 14.6 (00:00) 16.4 5.83 (20:40) 3.33 (11:10) 18.6 2.6 2.6 12.8 0.6
10-08-2019 22.7 (12:20) 17.9 (00:00) 20.3 7.5 (12:50) 5.28 (13:40) 0 0 0 0 0
09-08-2019 29.7 (00:00) 20 (00:00) 24.9 11.94 (02:10) 8.06 (02:10) 0 0 0 0 0
08-08-2019 33.9 (16:10) 18.3 (00:00) 26.1 12.22 (18:50) 7.22 (20:50) 0 0 0 0 0
07-08-2019 27.2 (17:30) 18.3 (00:00) 22.8 6.39 (15:00) 3.61 (14:40) 0 0 0 0 0
06-08-2019 24.1 (14:40) 15.1 (00:00) 19.6 6.67 (14:30) 4.17 (14:30) 0 0 0 0 0
05-08-2019 25 (16:30) 15 (00:00) 20 5.83 (14:40) 3.89 (13:20) 0 0 0 0 0
04-08-2019 22.6 (11:30) 18.1 (00:00) 20.4 6.39 (13:20) 4.72 (13:20) 0 0 0 0 0
03-08-2019 23.8 (16:20) 15.1 (00:00) 19.4 7.78 (15:00) 5 (15:00) 0 0 0 0 0
02-08-2019 23.7 (14:50) 13.8 (00:00) 18.8 7.78 (15:50) 4.44 (16:10) 0 0 0 0 0
01-08-2019 21.7 (18:00) 15.1 (00:00) 18.4 5 (15:10) 3.33 (17:50) 0.2 0 0.2 0 0
31-07-2019 22 (14:20) 13 (00:00) 17.5 9.17 (14:40) 5.28 (15:20) 0 0 0 0 0
30-07-2019 20.6 (14:50) 15.1 (00:00) 17.9 8.89 (15:00) 5 (14:20) 0 0 0 0 0
29-07-2019 22.6 (11:30) 15 (00:00) 18.8 9.72 (22:30) 6.39 (13:10) 0 0 0 0 0
28-07-2019 22.6 (17:40) 14.3 (00:00) 18.5 6.39 (19:10) 4.17 (14:10) 5 4.8 0.2 0 0
27-07-2019 18 (16:30) 13.9 (00:00) 15.9 9.72 (20:10) 5.83 (18:00) 18 8 1 3.2 5.8
26-07-2019 19.2 (00:00) 15.4 (00:00) 17.3 8.33 (14:20) 4.72 (04:00) 16.4 5.6 9.6 1 0.2
25-07-2019 25.7 (12:30) 19.2 (00:00) 22.5 8.06 (21:00) 5 (14:00) 0 0 0 0 0
24-07-2019 27.2 (15:20) 19.5 (00:00) 23.4 8.33 (03:00) 4.17 (19:50) 0 0 0 0 0
23-07-2019 26.9 (15:30) 18.9 (00:00) 22.9 10 (18:50) 6.39 (16:30) 1.6 0 0 0 1.6
22-07-2019 25.7 (16:30) 19.5 (00:00) 22.6 8.61 (22:10) 4.44 (13:00) 0.4 0 0 0 0.4
21-07-2019 22.9 (14:40) 17.7 (00:00) 20.3 7.78 (16:30) 3.89 (17:00) 0 0 0 0 0

Gráficas

Temp. máximas Temp. mínimas Temp. medias Precipitaciones Rachas de viento máximas Velocidades máximas media en intervalos de 10 minutos

Datos horarios

Fecha y hora oficial Temperatura (ºC) Velocidad del viento (km/h) Dirección del viento Racha (km/h) Dirección de racha Precipitación (mm) Presión (hPa) Tendencia (hPa) Humedad (%)
2019-08-19 23:00:00 16.5 4 Nordeste 11 Este 0 -- -- 93
2019-08-19 22:00:00 16.9 5 Norte 12 Norte 0.2 -- -- 92
2019-08-19 21:00:00 17.3 4 Norte 12 Nordeste 0 -- -- 87
2019-08-19 20:00:00 18 5 Norte 10 Noroeste 0 -- -- 85
2019-08-19 19:00:00 18.3 7 Norte 13 Norte 0 -- -- 81
2019-08-19 18:00:00 18.6 9 Norte 17 Noroeste 0 -- -- 79
2019-08-19 17:00:00 19.1 9 Norte 16 Norte 0 -- -- 77
2019-08-19 16:00:00 19.5 4 Este 7 Nordeste 0 -- -- 70
2019-08-19 15:00:00 17.5 4 Este 18 Nordeste 0 -- -- 82
2019-08-19 14:00:00 18.2 6 Norte 13 Norte 0 -- -- 80
2019-08-19 13:00:00 19.6 4 Este 11 Sur 0 -- -- 74
2019-08-19 12:00:00 18.6 8 Sur 12 Sudeste 0 -- -- 77
2019-08-19 11:00:00 16.7 0 Calma 9 Sudoeste 0 -- -- 91
2019-08-19 10:00:00 15.6 5 Sudoeste 10 Sur 0 -- -- 99
2019-08-19 09:00:00 14.8 6 Sudoeste 12 Sudoeste 0 -- -- 100
2019-08-19 08:00:00 14.3 6 Sudoeste 10 Sudoeste 0 -- -- 100
2019-08-19 07:00:00 14.1 8 Sudoeste 10 Sudoeste 0 -- -- 100
2019-08-19 06:00:00 14.2 6 Noroeste 11 Noroeste 0.6 -- -- 100
2019-08-19 05:00:00 14.8 3 Norte 8 Sur 0.4 -- -- 100
2019-08-19 04:00:00 14.7 5 Sudoeste 10 Sudoeste 0 -- -- 100
2019-08-19 03:00:00 14.7 6 Sudoeste 14 Sudoeste 0.2 -- -- 100
2019-08-19 02:00:00 14.8 3 Sudoeste 9 Oeste 0.2 -- -- 99
2019-08-19 01:00:00 15.2 0 Calma 10 Oeste 0 -- -- 97
2019-08-19 00:00:00 15.4 4 Oeste 13 Oeste 0 -- -- 97
2019-08-18 23:00:00 15.4 7 Sudoeste 11 Sudoeste 0 -- -- 99
2019-08-18 22:00:00 15.6 4 Sudoeste 14 Sudoeste 0 -- -- 99
2019-08-18 21:00:00 15.7 6 Sudoeste 19 Oeste 0.4 -- -- 99
2019-08-18 20:00:00 16.1 4 Oeste 14 Oeste 0 -- -- 100
2019-08-18 19:00:00 16.1 8 Noroeste 23 Noroeste 1.8 -- -- 100
2019-08-18 18:00:00 16.2 8 Noroeste 27 Noroeste 7.6 -- -- 100
2019-08-18 17:00:00 16.8 9 Noroeste 25 Norte 5.8 -- -- 100
2019-08-18 16:00:00 17 13 Noroeste 28 Noroeste 4 -- -- 100
2019-08-18 15:00:00 17.3 17 Norte 32 Noroeste 2.2 -- -- 99
2019-08-18 14:00:00 17.8 18 Noroeste 30 Norte 1.2 -- -- 99
2019-08-18 13:00:00 18.9 13 Norte 30 Noroeste 2.2 -- -- 99
2019-08-18 12:00:00 19.1 13 Noroeste 28 Norte 2.2 -- -- 99
2019-08-18 11:00:00 19.5 12 Noroeste 30 Norte 2 -- -- 96
2019-08-18 10:00:00 20.7 4 Noroeste 8 Oeste 0 -- -- 89
2019-08-18 09:00:00 19.9 5 Norte 9 Sudoeste 0 -- -- 91
2019-08-18 08:00:00 19.5 2 Noroeste 9 Oeste 0 -- -- 91
2019-08-18 07:00:00 18.4 5 Sur 10 Oeste 0 -- -- 94
2019-08-18 06:00:00 19.8 4 Sudoeste 26 Sudoeste 0 -- -- 93
2019-08-18 05:00:00 20 8 Sudoeste 22 Sudoeste 0 -- -- 89
2019-08-18 04:00:00 18.3 4 Sudoeste 12 Sur 0 -- -- 95
2019-08-18 03:00:00 18.2 4 Sur 12 Sur 0 -- -- 96
2019-08-18 02:00:00 18.2 9 Sur 12 Sur 0 -- -- 95
2019-08-18 01:00:00 19.3 9 Sudoeste 13 Sudoeste 0 -- -- 92
2019-08-18 00:00:00 19.8 3 Sudeste 4 Este 0 -- -- 89
2019-08-17 23:00:00 20.3 3 Norte 6 Nordeste 0 -- -- 87
2019-08-17 22:00:00 21.1 4 Nordeste 10 Este 0 -- -- 84
2019-08-17 21:00:00 22.5 5 Este 12 Nordeste 0 -- -- 78
2019-08-17 20:00:00 24.2 5 Nordeste 13 Este 0 -- -- 71
2019-08-17 19:00:00 24.7 9 Norte 18 Norte 0 -- -- 70
2019-08-17 18:00:00 25.7 9 Norte 19 Norte 0 -- -- 67
2019-08-17 17:00:00 25.7 13 Norte 20 Norte 0 -- -- 66
2019-08-17 16:00:00 26 13 Norte 22 Norte 0 -- -- 65
2019-08-17 15:00:00 25.8 14 Noroeste 22 Noroeste 0 -- -- 62
2019-08-17 14:00:00 26 12 Norte 18 Noroeste 0 -- -- 62
2019-08-17 13:00:00 25.6 14 Norte 21 Noroeste 0 -- -- 61
2019-08-17 12:00:00 24.8 5 Norte 19 Norte 0 -- -- 68
2019-08-17 11:00:00 23.5 3 Sudeste 10 Sur 0 -- -- 74
2019-08-17 10:00:00 19.9 6 Sur 8 Sur 0 -- -- 84
2019-08-17 09:00:00 17.2 8 Sur 18 Sur 0 -- -- 90
2019-08-17 08:00:00 15.5 10 Sudoeste 16 Sudoeste 0 -- -- 96
2019-08-17 07:00:00 14.7 5 Sudoeste 12 Sudoeste 0 -- -- 100
2019-08-17 06:00:00 14.9 5 Oeste 12 Sudoeste 0 -- -- 99
2019-08-17 05:00:00 15.1 7 Sur 9 Sur 0 -- -- 98
2019-08-17 04:00:00 15.7 3 Sudoeste 12 Sudoeste 0 -- -- 98
2019-08-17 03:00:00 16.5 6 Sur 14 Sudoeste 0 -- -- 95
2019-08-17 02:00:00 17 10 Sudoeste 15 Sur 0 -- -- 97
2019-08-17 01:00:00 17.1 9 Sudoeste 13 Sudoeste 0 -- -- 96
2019-08-17 00:00:00 17.5 5 Sudoeste 8 Sudoeste 0 -- -- 95
2019-08-16 23:00:00 17.7 4 Sur 12 Sur 0 -- -- 94
2019-08-16 22:00:00 18.5 5 Sur 17 Noroeste 0 -- -- 91
2019-08-16 21:00:00 19.5 12 Noroeste 21 Noroeste 0 -- -- 84
2019-08-16 20:00:00 21.2 5 Noroeste 12 Noroeste 0 -- -- 76
2019-08-16 19:00:00 22.3 8 Noroeste 26 Noroeste 0 -- -- 70
2019-08-16 18:00:00 23.2 17 Noroeste 25 Noroeste 0 -- -- 67
2019-08-16 17:00:00 24.1 9 Norte 23 Noroeste 0 -- -- 66
2019-08-16 16:00:00 23.5 14 Norte 21 Norte 0 -- -- 66
2019-08-16 15:00:00 23.3 11 Noroeste 19 Noroeste 0 -- -- 72
2019-08-16 14:00:00 23.3 7 Norte 21 Noroeste 0 -- -- 72
2019-08-16 13:00:00 22.2 12 Norte 21 Noroeste 0 -- -- 77
2019-08-16 12:00:00 22 4 Norte 17 Norte 0 -- -- 78
2019-08-16 11:00:00 20.7 6 Norte 12 Noroeste 0 -- -- 78
2019-08-16 10:00:00 17.8 7 Sur 10 Sudoeste 0 -- -- 88
2019-08-16 09:00:00 14.7 6 Sur 11 Sudoeste 0 -- -- 99
2019-08-16 08:00:00 12.9 6 Sudoeste 9 Sudoeste 0 -- -- 99
2019-08-16 07:00:00 13.6 7 Sudoeste 10 Sudoeste 0 -- -- 99
2019-08-16 06:00:00 13.2 7 Sudoeste 10 Sur 0 -- -- 98
2019-08-16 05:00:00 13.4 4 Sur 6 Sudoeste 0 -- -- 96
2019-08-16 04:00:00 14.2 4 Sur 9 Sudoeste 0 -- -- 95
2019-08-16 03:00:00 15.1 8 Sudoeste 12 Sudoeste 0 -- -- 95
2019-08-16 02:00:00 15.7 0 Calma 7 Este 0 -- -- 91
2019-08-16 01:00:00 16 0 Calma 9 Este 0 -- -- 89
2019-08-16 00:00:00 16.6 2 Sudeste 8 Sudeste 0 -- -- 88
2019-08-15 23:00:00 17.9 5 Sudeste 12 Nordeste 0 -- -- 83
2019-08-15 22:00:00 18.3 4 Nordeste 13 Nordeste 0 -- -- 83
2019-08-15 21:00:00 19.1 8 Norte 13 Norte 0 -- -- 79
2019-08-15 20:00:00 20.2 2 Este 5 Norte 0 -- -- 74
2019-08-15 19:00:00 20.1 4 Norte 9 Norte 0 -- -- 73
2019-08-15 18:00:00 20.2 4 Norte 12 Norte 0 -- -- 76
2019-08-15 17:00:00 20 6 Norte 18 Norte 0 -- -- 75
2019-08-15 16:00:00 20.1 12 Norte 22 Norte 0 -- -- 76
2019-08-15 15:00:00 21 13 Norte 23 Norte 0 -- -- 74
2019-08-15 14:00:00 21.1 11 Noroeste 23 Noroeste 0 -- -- 78
2019-08-15 13:00:00 21 9 Norte 20 Norte 0 -- -- 79
2019-08-15 12:00:00 20.1 6 Norte 13 Norte 0 -- -- 81
2019-08-15 11:00:00 18.5 3 Oeste 13 Oeste 0 -- -- 93
2019-08-15 10:00:00 17.4 3 Oeste 12 Oeste 0 -- -- 99
2019-08-15 09:00:00 16.8 6 Noroeste 15 Noroeste 0.2 -- -- 100
2019-08-15 08:00:00 16.7 8 Noroeste 15 Noroeste 0.8 -- -- 100
2019-08-15 07:00:00 16.6 9 Noroeste 19 Oeste 1.2 -- -- 100
2019-08-15 06:00:00 16.7 6 Noroeste 18 Noroeste 1.8 -- -- 100
2019-08-15 05:00:00 16.9 10 Noroeste 24 Oeste 2.2 -- -- 100
2019-08-15 04:00:00 17.4 12 Noroeste 29 Noroeste 2.6 -- -- 100
2019-08-15 03:00:00 17.8 14 Noroeste 26 Noroeste 2.8 -- -- 99
2019-08-15 02:00:00 18.6 19 Noroeste 31 Noroeste 3.2 -- -- 99
2019-08-15 01:00:00 19.2 9 Noroeste 21 Oeste 2.2 -- -- 98
2019-08-15 00:00:00 19.6 7 Noroeste 18 Oeste 0.6 -- -- 97
2019-08-14 23:00:00 19.6 5 Oeste 16 Noroeste 0.8 -- -- 95
2019-08-14 22:00:00 20.3 3 Oeste 15 Sudoeste 0 -- -- 87
2019-08-14 21:00:00 20.5 4 Sudoeste 18 Noroeste 0 -- -- 84
2019-08-14 20:00:00 20.9 9 Oeste 30 Noroeste 0 -- -- 80
2019-08-14 19:00:00 22.6 6 Noroeste 25 Oeste 0 -- -- 67
2019-08-14 18:00:00 23.7 6 Oeste 23 Noroeste 0 -- -- 63
2019-08-14 17:00:00 23.8 8 Noroeste 19 Noroeste 0 -- -- 57
2019-08-14 16:00:00 23 12 Noroeste 22 Noroeste 0 -- -- 57
2019-08-14 15:00:00 22.8 9 Noroeste 26 Noroeste 0 -- -- 56
2019-08-14 14:00:00 23.2 14 Noroeste 32 Noroeste 0 -- -- 47
2019-08-14 13:00:00 23.8 10 Noroeste 23 Noroeste 0 -- -- 51
2019-08-14 12:00:00 23.4 7 Noroeste 18 Noroeste 0 -- -- 60
2019-08-14 11:00:00 22.5 3 Norte 9 Norte 0 -- -- 62
2019-08-14 10:00:00 19.5 7 Sur 16 Sudoeste 0 -- -- 77
2019-08-14 09:00:00 16.1 7 Sudoeste 15 Sudoeste 0 -- -- 83
2019-08-14 08:00:00 14.4 8 Sur 14 Sudoeste 0 -- -- 89
2019-08-14 07:00:00 13.4 7 Sudoeste 14 Sudoeste 0 -- -- 93
2019-08-14 06:00:00 14.2 9 Sudoeste 12 Sudoeste 0 -- -- 89
2019-08-14 05:00:00 14.2 8 Sur 13 Sur 0 -- -- 90
2019-08-14 04:00:00 14.6 9 Sudoeste 17 Sudoeste 0 -- -- 90
2019-08-14 03:00:00 14.2 11 Sudoeste 15 Sudoeste 0 -- -- 94
2019-08-14 02:00:00 14 9 Sur 12 Sudoeste 0 -- -- 93
2019-08-14 01:00:00 15 7 Sudoeste 10 Sudoeste 0 -- -- 88
2019-08-14 00:00:00 16 3 Sur 10 Sudeste 0 -- -- 82
2019-08-13 23:00:00 16.5 7 Sudeste 10 Este 0 -- -- 80
2019-08-13 22:00:00 16.8 3 Este 9 Nordeste 0 -- -- 79
2019-08-13 21:00:00 18.2 4 Norte 18 Norte 0 -- -- 74
2019-08-13 20:00:00 19.9 10 Norte 19 Nordeste 0 -- -- 68
2019-08-13 19:00:00 20.7 9 Nordeste 23 Nordeste 0 -- -- 63
2019-08-13 18:00:00 20.8 11 Nordeste 24 Nordeste 0 -- -- 61
2019-08-13 17:00:00 21.2 10 Nordeste 24 Nordeste 0 -- -- 63
2019-08-13 16:00:00 21.1 13 Nordeste 29 Nordeste 0 -- -- 65
2019-08-13 15:00:00 21.2 16 Norte 28 Noroeste 0 -- -- 67
2019-08-13 14:00:00 21.6 13 Norte 25 Norte 0 -- -- 63
2019-08-13 13:00:00 21.3 7 Nordeste 18 Sudeste 0 -- -- 60
2019-08-13 12:00:00 20.7 7 Este 17 Sudeste 0 -- -- 66
2019-08-13 11:00:00 19.1 6 Sur 10 Sur 0 -- -- 71
2019-08-13 10:00:00 16.5 6 Sur 13 Sudoeste 0 -- -- 80
2019-08-13 09:00:00 14.1 9 Sudoeste 15 Sudoeste 0 -- -- 87
2019-08-13 08:00:00 13.3 8 Sudoeste 14 Sudoeste 0 -- -- 88
2019-08-13 07:00:00 12.8 9 Sur 13 Sudoeste 0 -- -- 92
2019-08-13 06:00:00 13.4 6 Sudoeste 12 Sudoeste 0 -- -- 91
2019-08-13 05:00:00 13.8 8 Sudoeste 14 Oeste 0 -- -- 89
2019-08-13 04:00:00 14.4 7 Sudoeste 13 Oeste 0 -- -- 88
2019-08-13 03:00:00 14.5 6 Sudoeste 12 Sudoeste 0 -- -- 87
2019-08-13 02:00:00 15.1 5 Sudoeste 12 Oeste 0 -- -- 85
2019-08-13 01:00:00 15.6 6 Sudoeste 15 Sur 0 -- -- 84
2019-08-13 00:00:00 16 5 Sudoeste 9 Oeste 0 -- -- 84
2019-08-12 23:00:00 16.2 3 Oeste 6 Noroeste 0 -- -- 81
2019-08-12 22:00:00 16 4 Noroeste 6 Noroeste 0 -- -- 81
2019-08-12 21:00:00 16.9 3 Norte 17 Norte 0 -- -- 78
2019-08-12 20:00:00 18.2 5 Noroeste 24 Norte 0 -- -- 72
2019-08-12 19:00:00 19.1 13 Noroeste 26 Noroeste 0 -- -- 71
2019-08-12 18:00:00 19.1 10 Noroeste 27 Noroeste 0 -- -- 71
2019-08-12 17:00:00 19.5 17 Noroeste 32 Norte 0 -- -- 66
2019-08-12 16:00:00 19.7 14 Noroeste 35 Noroeste 0 -- -- 72
2019-08-12 15:00:00 19.5 16 Noroeste 33 Noroeste 0 -- -- 71
2019-08-12 14:00:00 18.8 9 Oeste 24 Oeste 0 -- -- 74
2019-08-12 13:00:00 17.9 13 Noroeste 34 Oeste 0 -- -- 77
2019-08-12 12:00:00 18.9 13 Noroeste 31 Oeste 0 -- -- 66
2019-08-12 11:00:00 18.6 7 Oeste 21 Oeste 0 -- -- 70
2019-08-12 10:00:00 17.2 8 Oeste 21 Oeste 0 -- -- 72
2019-08-12 09:00:00 14.5 5 Sudoeste 17 Sudoeste 0 -- -- 85
2019-08-12 08:00:00 12.1 7 Sudoeste 12 Sudoeste 0 -- -- 92
2019-08-12 07:00:00 12.6 8 Sudoeste 16 Oeste 0 -- -- 89
2019-08-12 06:00:00 12.4 10 Sudoeste 14 Sudoeste 0 -- -- 93
2019-08-12 05:00:00 12.2 9 Sudoeste 15 Sudoeste 0 -- -- 94
2019-08-12 04:00:00 12.9 6 Sudoeste 18 Sudoeste 0 -- -- 91
2019-08-12 03:00:00 13.4 11 Sudoeste 15 Sur 0 -- -- 92
2019-08-12 02:00:00 14.2 8 Sudoeste 14 Sudoeste 0 -- -- 90
2019-08-12 01:00:00 14.1 8 Sudoeste 13 Sudoeste 0 -- -- 93
2019-08-12 00:00:00 15 4 Sudoeste 14 Sudoeste 0 -- -- 84
2019-08-11 23:00:00 14.9 9 Sudoeste 15 Sudoeste 0 -- -- 91
2019-08-11 22:00:00 14.6 7 Sudoeste 12 Sudoeste 0 -- -- 96
2019-08-11 21:00:00 15.3 7 Sur 21 Noroeste 0.6 -- -- 95
2019-08-11 20:00:00 16.3 4 Sudoeste 10 Sudoeste 0 -- -- 90
2019-08-11 19:00:00 17 7 Sudoeste 12 Sur 0 -- -- 90
2019-08-11 18:00:00 17.6 6 Sur 9 Sur 0 -- -- 90
2019-08-11 17:00:00 17.6 3 Norte 6 Sudoeste 1.8 -- -- 95
2019-08-11 16:00:00 16.2 2 Norte 12 Norte 2.4 -- -- 97
2019-08-11 15:00:00 16.4 7 Norte 16 Norte 5.4 -- -- 97
2019-08-11 14:00:00 17.5 4 Nordeste 7 Nordeste 2.4 -- -- 92
2019-08-11 13:00:00 17.4 3 Nordeste 7 Nordeste 0.8 -- -- 94
2019-08-11 12:00:00 16.9 6 Sur 20 Noroeste 2 -- -- 95
2019-08-11 11:00:00 17.4 10 Norte 16 Norte 0 -- -- 94
2019-08-11 10:00:00 15.8 5 Sudoeste 11 Sudoeste 0 -- -- 94
2019-08-11 09:00:00 15.7 8 Sudoeste 14 Sudoeste 0 -- -- 96
2019-08-11 08:00:00 15.5 3 Sudoeste 9 Sudoeste 0 -- -- 97
2019-08-11 07:00:00 15.3 4 Sudoeste 13 Sudoeste 0.6 -- -- 96
2019-08-11 06:00:00 15.9 8 Sudoeste 13 Sur 2.6 -- -- 94
2019-08-11 05:00:00 17.2 6 Sudoeste 13 Sudoeste 0 -- -- 85
2019-08-11 04:00:00 17.5 5 Sudoeste 8 Sudoeste 0 -- -- 81
2019-08-11 03:00:00 17.3 6 Sudoeste 12 Sudoeste 0 -- -- 80
2019-08-11 02:00:00 17.4 5 Sudoeste 9 Sudoeste 0 -- -- 80
2019-08-11 01:00:00 17.6 5 Sudoeste 9 Sudoeste 0 -- -- 84
2019-08-11 00:00:00 18.2 3 Sudoeste 5 Sudoeste 0 -- -- 84
2019-08-10 23:00:00 18.1 3 Sudoeste 4 Sudoeste 0 -- -- 85
2019-08-10 22:00:00 18.4 0 Calma 5 Noroeste 0 -- -- 84
2019-08-10 21:00:00 19 2 Norte 8 Noroeste 0 -- -- 82
2019-08-10 20:00:00 19.7 5 Norte 11 Norte 0 -- -- 79
2019-08-10 19:00:00 20.1 8 Norte 14 Norte 0 -- -- 76
2019-08-10 18:00:00 20.9 9 Norte 14 Norte 0 -- -- 73
2019-08-10 17:00:00 21.1 8 Norte 18 Noroeste 0 -- -- 71
2019-08-10 16:00:00 21.5 10 Norte 20 Norte 0 -- -- 70
2019-08-10 15:00:00 20.8 12 Norte 23 Noroeste 0 -- -- 70
2019-08-10 14:00:00 21 16 Norte 26 Noroeste 0 -- -- 69
2019-08-10 13:00:00 21.1 17 Norte 27 Noroeste 0 -- -- 70
2019-08-10 12:00:00 21.6 10 Norte 21 Norte 0 -- -- 70
2019-08-10 11:00:00 20.5 9 Norte 15 Norte 0 -- -- 77
2019-08-10 10:00:00 20.2 5 Sur 8 Sudeste 0 -- -- 83
2019-08-10 09:00:00 19.2 3 Sur 6 Sudoeste 0 -- -- 88
2019-08-10 08:00:00 18 4 Sur 6 Sur 0 -- -- 91
2019-08-10 07:00:00 18 3 Sur 17 Noroeste 0 -- -- 90
2019-08-10 06:00:00 18.9 4 Norte 6 Noroeste 0 -- -- 96
2019-08-10 05:00:00 19.1 0 Calma 2 Sur 0 -- -- 95
2019-08-10 04:00:00 19.2 3 Norte 9 Norte 0 -- -- 92
2019-08-10 03:00:00 19.4 2 Noroeste 16 Noroeste 0 -- -- 90
2019-08-10 02:00:00 19.9 5 Norte 25 Norte 0 -- -- 91
2019-08-10 01:00:00 20.1 11 Noroeste 18 Noroeste 0 -- -- 94
2019-08-10 00:00:00 20 4 Noroeste 9 Noroeste 0 -- -- 93
2019-08-09 23:00:00 20.3 0 Calma 8 Nordeste 0 -- -- 90
2019-08-09 22:00:00 20.5 4 Norte 7 Este 0 -- -- 87
2019-08-09 21:00:00 21.4 4 Este 8 Este 0 -- -- 81
2019-08-09 20:00:00 22.3 4 Este 13 Sudeste 0 -- -- 78
2019-08-09 19:00:00 22.7 6 Sudeste 12 Sudeste 0 -- -- 76
2019-08-09 18:00:00 22.3 4 Nordeste 13 Nordeste 0 -- -- 75
2019-08-09 17:00:00 22.1 7 Nordeste 19 Nordeste 0 -- -- 76
2019-08-09 16:00:00 22 9 Nordeste 15 Nordeste 0 -- -- 79
2019-08-09 15:00:00 21.7 7 Nordeste 16 Este 0 -- -- 80
2019-08-09 14:00:00 21.8 8 Nordeste 23 Norte 0 -- -- 81
2019-08-09 13:00:00 21.4 9 Norte 30 Norte 0 -- -- 82
2019-08-09 12:00:00 22.1 12 Nordeste 23 Nordeste 0 -- -- 86
2019-08-09 11:00:00 21.2 9 Nordeste 17 Nordeste 0 -- -- 90
2019-08-09 10:00:00 21.1 10 Nordeste 16 Nordeste 0 -- -- 91
2019-08-09 09:00:00 21.2 7 Norte 14 Nordeste 0 -- -- 93
2019-08-09 08:00:00 21 6 Norte 15 Norte 0 -- -- 94
2019-08-09 07:00:00 21 10 Noroeste 31 Noroeste 0 -- -- 94
2019-08-09 06:00:00 22.3 23 Noroeste 40 Noroeste 0 -- -- 90
2019-08-09 05:00:00 27.7 21 Sur 37 Sudoeste 0 -- -- 50
2019-08-09 04:00:00 27.7 7 Sur 39 Sur 0 -- -- 49
2019-08-09 03:00:00 28.9 25 Sur 43 Sur 0 -- -- 45
2019-08-09 02:00:00 29.3 24 Sur 41 Sur 0 -- -- 44
2019-08-09 01:00:00 28 15 Sur 23 Sur 0 -- -- 48
2019-08-09 00:00:00 29.7 15 Sur 40 Sur 0 -- -- 44
2019-08-08 23:00:00 29.9 18 Sur 35 Sudoeste 0 -- -- 46
2019-08-08 22:00:00 30.2 17 Sur 29 Sur 0 -- -- 45
2019-08-08 21:00:00 30.9 23 Sur 42 Sur 0 -- -- 46
2019-08-08 20:00:00 32.1 18 Sur 30 Sur 0 -- -- 45
2019-08-08 19:00:00 33 20 Sur 44 Sudoeste 0 -- -- 42
2019-08-08 18:00:00 33.5 23 Sur 34 Sur 0 -- -- 42
2019-08-08 17:00:00 33.9 18 Sur 35 Sur 0 -- -- 44
2019-08-08 16:00:00 33.8 15 Sur 24 Sudoeste 0 -- -- 42
2019-08-08 15:00:00 33.3 9 Este 20 Este 0 -- -- 42
2019-08-08 14:00:00 32.4 6 Sudeste 14 Sur 0 -- -- 45
2019-08-08 13:00:00 32 9 Sudeste 21 Sudeste 0 -- -- 46
2019-08-08 12:00:00 30.7 10 Sur 19 Sur 0 -- -- 52
2019-08-08 11:00:00 28.5 8 Sur 13 Sudeste 0 -- -- 60
2019-08-08 10:00:00 25.2 6 Sur 10 Sudoeste 0 -- -- 71
2019-08-08 09:00:00 22.3 8 Sudoeste 13 Sudoeste 0 -- -- 80
2019-08-08 08:00:00 18.9 7 Sudoeste 13 Sudoeste 0 -- -- 93
2019-08-08 07:00:00 18.9 0 Calma 8 Sudoeste 0 -- -- 94
2019-08-08 06:00:00 18.6 5 Sudoeste 8 Sudoeste 0 -- -- 99
2019-08-08 05:00:00 19.1 0 Calma 7 Sudoeste 0 -- -- 99
2019-08-08 04:00:00 19.3 0 Calma 7 Sudoeste 0 -- -- 100
2019-08-08 03:00:00 19.2 5 Sur 8 Sudeste 0 -- -- 99
2019-08-08 02:00:00 19.6 4 Sur 6 Sudoeste 0 -- -- 98
2019-08-08 01:00:00 19.6 4 Sudeste 5 Sudeste 0 -- -- 98
2019-08-08 00:00:00 20.2 0 Calma 4 Nordeste 0 -- -- 96
2019-08-07 23:00:00 20.6 0 Calma 6 Norte 0 -- -- 94
2019-08-07 22:00:00 21.5 0 Calma 9 Oeste 0 -- -- 89
2019-08-07 21:00:00 22.1 3 Noroeste 11 Noroeste 0 -- -- 88
2019-08-07 20:00:00 23.1 6 Norte 15 Norte 0 -- -- 84
2019-08-07 19:00:00 25 8 Norte 13 Norte 0 -- -- 78
2019-08-07 18:00:00 26.9 8 Nordeste 16 Nordeste 0 -- -- 55
2019-08-07 17:00:00 27.1 9 Nordeste 21 Norte 0 -- -- 58
2019-08-07 16:00:00 26.5 10 Norte 22 Norte 0 -- -- 70
2019-08-07 15:00:00 26.4 12 Nordeste 23 Nordeste 0 -- -- 71
2019-08-07 14:00:00 25.7 11 Nordeste 21 Nordeste 0 -- -- 73
2019-08-07 13:00:00 25.9 5 Este 15 Este 0 -- -- 68
2019-08-07 12:00:00 24.7 7 Este 13 Nordeste 0 -- -- 74
2019-08-07 11:00:00 23.4 5 Nordeste 10 Norte 0 -- -- 79
2019-08-07 10:00:00 21.6 4 Noroeste 12 Sur 0 -- -- 85
2019-08-07 09:00:00 19.4 5 Sur 9 Sudoeste 0 -- -- 95
2019-08-07 08:00:00 18.5 6 Sudoeste 10 Sudoeste 0 -- -- 95
2019-08-07 07:00:00 18.5 4 Sur 9 Oeste 0 -- -- 94
2019-08-07 06:00:00 18.5 0 Calma 5 Norte 0 -- -- 92
2019-08-07 05:00:00 18.5 3 Oeste 6 Sudoeste 0 -- -- 94
2019-08-07 04:00:00 18.7 0 Calma 3 Este 0 -- -- 93
2019-08-07 03:00:00 18.6 0 Calma 5 Norte 0 -- -- 95
2019-08-07 02:00:00 18.7 4 Sur 9 Sudeste 0 -- -- 97
2019-08-07 01:00:00 18.8 4 Sur 8 Sur 0 -- -- 97
2019-08-07 00:00:00 19.1 0 Calma 5 Sudoeste 0 -- -- 96
2019-08-06 23:00:00 19.3 4 Oeste 13 Este 0 -- -- 94
2019-08-06 22:00:00 19.9 5 Sudoeste 12 Oeste 0 -- -- 91
2019-08-06 21:00:00 20.6 3 Sudoeste 16 Oeste 0 -- -- 92
2019-08-06 20:00:00 21 7 Oeste 18 Oeste 0 -- -- 87
2019-08-06 19:00:00 21.7 6 Noroeste 15 Noroeste 0 -- -- 81
2019-08-06 18:00:00 22.2 7 Noroeste 17 Noroeste 0 -- -- 79
2019-08-06 17:00:00 23.2 8 Norte 21 Noroeste 0 -- -- 78
2019-08-06 16:00:00 23.3 14 Norte 24 Noroeste 0 -- -- 76
2019-08-06 15:00:00 23.5 12 Norte 24 Norte 0 -- -- 78
2019-08-06 14:00:00 24 12 Norte 18 Norte 0 -- -- 74
2019-08-06 13:00:00 23.4 10 Norte 17 Norte 0 -- -- 80
2019-08-06 12:00:00 22.5 3 Norte 8 Sudoeste 0 -- -- 81
2019-08-06 11:00:00 21.2 4 Noroeste 12 Norte 0 -- -- 84
2019-08-06 10:00:00 19.7 5 Sur 6 Sur 0 -- -- 90
2019-08-06 09:00:00 17.2 2 Sudoeste 4 Sur 0 -- -- 98
2019-08-06 08:00:00 16 3 Sudoeste 10 Sudoeste 0 -- -- 98
2019-08-06 07:00:00 15.3 7 Sudoeste 10 Sur 0 -- -- 99
2019-08-06 06:00:00 15.9 5 Sur 11 Sudoeste 0 -- -- 98
2019-08-06 05:00:00 15.6 6 Sur 8 Sur 0 -- -- 98
2019-08-06 04:00:00 16.2 4 Sur 9 Sudoeste 0 -- -- 97
2019-08-06 03:00:00 16.3 6 Sur 8 Sur 0 -- -- 95
2019-08-06 02:00:00 17.5 2 Sudoeste 15 Sudoeste 0 -- -- 93
2019-08-06 01:00:00 17.8 6 Sur 10 Sudoeste 0 -- -- 89
2019-08-06 00:00:00 18.6 4 Sudoeste 8 Sudoeste 0 -- -- 87
2019-08-05 23:00:00 19.1 3 Noroeste 5 Noroeste 0 -- -- 89
2019-08-05 22:00:00 19.4 4 Norte 10 Noroeste 0 -- -- 89
2019-08-05 21:00:00 21.1 8 Norte 14 Norte 0 -- -- 81
2019-08-05 20:00:00 23.1 8 Norte 13 Norte 0 -- -- 70
2019-08-05 19:00:00 23.4 9 Norte 19 Norte 0 -- -- 69
2019-08-05 18:00:00 24.2 10 Norte 21 Norte 0 -- -- 67
2019-08-05 17:00:00 24.8 10 Norte 17 Norte 0 -- -- 63
2019-08-05 16:00:00 24.9 6 Norte 18 Norte 0 -- -- 62
2019-08-05 15:00:00 23.9 12 Noroeste 21 Noroeste 0 -- -- 68
2019-08-05 14:00:00 23.7 14 Noroeste 21 Norte 0 -- -- 71
2019-08-05 13:00:00 24.1 11 Norte 18 Norte 0 -- -- 76
2019-08-05 12:00:00 23.5 2 Este 10 Este 0 -- -- 73
2019-08-05 11:00:00 22.2 3 Sudeste 10 Sur 0 -- -- 79
2019-08-05 10:00:00 20 7 Sur 11 Sur 0 -- -- 89
2019-08-05 09:00:00 17.2 8 Sur 10 Sur 0 -- -- 100
2019-08-05 08:00:00 15.7 5 Sur 12 Sur 0 -- -- 100
2019-08-05 07:00:00 15 8 Sur 10 Sur 0 -- -- 100
2019-08-05 06:00:00 16 0 Calma 10 Sudoeste 0 -- -- 98
2019-08-05 05:00:00 16.9 5 Sudoeste 13 Sudoeste 0 -- -- 98
2019-08-05 04:00:00 16.7 9 Sudoeste 11 Sudoeste 0 -- -- 99
2019-08-05 03:00:00 16.4 4 Sur 5 Sur 0 -- -- 97
2019-08-05 02:00:00 17.2 3 Sur 4 Sur 0 -- -- 95
2019-08-05 01:00:00 17.6 0 Calma 4 Sudeste 0 -- -- 94
2019-08-05 00:00:00 18.1 0 Calma -- -- 0 -- -- 92
2019-08-04 23:00:00 18.5 0 Calma 5 Sudoeste 0 -- -- 90
2019-08-04 22:00:00 18.9 2 Este 4 Este 0 -- -- 88
2019-08-04 21:00:00 20.2 0 Calma 10 Norte 0 -- -- 84
2019-08-04 20:00:00 20.7 6 Norte 13 Noroeste 0 -- -- 81
2019-08-04 19:00:00 21 6 Norte 13 Norte 0 -- -- 81
2019-08-04 18:00:00 21.7 6 Norte 13 Norte 0 -- -- 78
2019-08-04 17:00:00 22.3 4 Norte 11 Noroeste 0 -- -- 77
2019-08-04 16:00:00 21.6 3 Norte 13 Norte 0 -- -- 81
2019-08-04 15:00:00 20.9 9 Norte 18 Norte 0 -- -- 84
2019-08-04 14:00:00 21 13 Norte 23 Norte 0 -- -- 86
2019-08-04 13:00:00 21.8 13 Norte 19 Noroeste 0 -- -- 85
2019-08-04 12:00:00 22.1 11 Norte 16 Noroeste 0 -- -- 83
2019-08-04 11:00:00 21.4 3 Sudoeste 10 Sudoeste 0 -- -- 84
2019-08-04 10:00:00 20 6 Sur 9 Sudoeste 0 -- -- 92
2019-08-04 09:00:00 19.1 4 Sudoeste 6 Sudoeste 0 -- -- 96
2019-08-04 08:00:00 18.7 4 Sur 5 Sur 0 -- -- 97
2019-08-04 07:00:00 18.8 0 Calma 6 Sudoeste 0 -- -- 96
2019-08-04 06:00:00 18.9 4 Sudoeste 8 Sur 0 -- -- 95
2019-08-04 05:00:00 18.7 4 Sudoeste 9 Sudoeste 0 -- -- 97
2019-08-04 04:00:00 18.9 5 Sudoeste 8 Sudoeste 0 -- -- 97
2019-08-04 03:00:00 18.8 5 Sudoeste 9 Oeste 0 -- -- 97
2019-08-04 02:00:00 18.7 5 Sudoeste 9 Sudoeste 0 -- -- 97
2019-08-04 01:00:00 19.2 5 Sudoeste 8 Sudoeste 0 -- -- 96
2019-08-04 00:00:00 19.6 4 Sudoeste 9 Sudoeste 0 -- -- 94
2019-08-03 23:00:00 20 5 Sur 8 Sur 0 -- -- 92
2019-08-03 22:00:00 20.1 0 Calma 13 Norte 0 -- -- 90
2019-08-03 21:00:00 20.5 2 Noroeste 13 Noroeste 0 -- -- 90
2019-08-03 20:00:00 21.2 7 Noroeste 17 Norte 0 -- -- 85
2019-08-03 19:00:00 22 9 Noroeste 22 Noroeste 0 -- -- 82
2019-08-03 18:00:00 22.7 15 Norte 24 Noroeste 0 -- -- 82
2019-08-03 17:00:00 23 14 Noroeste 25 Noroeste 0 -- -- 81
2019-08-03 16:00:00 23.3 13 Noroeste 27 Noroeste 0 -- -- 79
2019-08-03 15:00:00 23.3 18 Norte 28 Norte 0 -- -- 78
2019-08-03 14:00:00 23.4 12 Norte 19 Norte 0 -- -- 78
2019-08-03 13:00:00 23.2 12 Norte 20 Norte 0 -- -- 77
2019-08-03 12:00:00 22.5 7 Noroeste 16 Norte 0 -- -- 80
2019-08-03 11:00:00 20.8 3 Noroeste 9 Norte 0 -- -- 88
2019-08-03 10:00:00 19.8 5 Sur 9 Norte 0 -- -- 96
2019-08-03 09:00:00 17.2 4 Sur 7 Sur 0 -- -- 100
2019-08-03 08:00:00 16.4 6 Sudoeste 9 Sudoeste 0 -- -- 100
2019-08-03 07:00:00 15.1 5 Sudoeste 6 Sudoeste 0 -- -- 100
2019-08-03 06:00:00 15.7 4 Sudoeste 5 Sur 0 -- -- 99
2019-08-03 05:00:00 16.6 2 Sudoeste 6 Sur 0 -- -- 99
2019-08-03 04:00:00 16.9 3 Sur 4 Sudoeste 0 -- -- 98
2019-08-03 03:00:00 17.2 0 Calma 7 Este 0 -- -- 97
2019-08-03 02:00:00 17.8 3 Nordeste 6 Nordeste 0 -- -- 95
2019-08-03 01:00:00 18.7 3 Nordeste 10 Nordeste 0 -- -- 93
2019-08-03 00:00:00 19.1 5 Nordeste 13 Este 0 -- -- 90
2019-08-02 23:00:00 19.2 6 Nordeste 14 Nordeste 0 -- -- 89
2019-08-02 22:00:00 19.1 2 Norte 9 Este 0 -- -- 90
2019-08-02 21:00:00 20.2 6 Norte 15 Norte 0 -- -- 86
2019-08-02 20:00:00 21.9 9 Norte 22 Nordeste 0 -- -- 79
2019-08-02 19:00:00 22.9 9 Norte 24 Norte 0 -- -- 76
2019-08-02 18:00:00 23.5 11 Nordeste 25 Norte 0 -- -- 76
2019-08-02 17:00:00 23.5 11 Nordeste 27 Nordeste 0 -- -- 76
2019-08-02 16:00:00 23.3 16 Nordeste 28 Nordeste 0 -- -- 77
2019-08-02 15:00:00 23.6 14 Norte 27 Nordeste 0 -- -- 77
2019-08-02 14:00:00 22.9 14 Nordeste 27 Nordeste 0 -- -- 79
2019-08-02 13:00:00 23 13 Nordeste 22 Nordeste 0 -- -- 77
2019-08-02 12:00:00 22.7 9 Nordeste 16 Norte 0 -- -- 77
2019-08-02 11:00:00 21.1 6 Nordeste 15 Nordeste 0 -- -- 82
2019-08-02 10:00:00 18.4 4 Sudeste 9 Sur 0 -- -- 90
2019-08-02 09:00:00 16 6 Sudoeste 9 Sudoeste 0 -- -- 100
2019-08-02 08:00:00 14.4 5 Sur 11 Sudoeste 0 -- -- 100
2019-08-02 07:00:00 14.2 3 Sur 9 Sudoeste 0 -- -- 99
2019-08-02 06:00:00 14.5 5 Sur 9 Sudoeste 0 -- -- 100
2019-08-02 05:00:00 14.2 6 Sudoeste 8 Sudoeste 0 -- -- 99
2019-08-02 04:00:00 15 6 Sur 9 Sudoeste 0 -- -- 99
2019-08-02 03:00:00 14.7 4 Sur 6 Sur 0 -- -- 98
2019-08-02 02:00:00 16.5 4 Sudoeste 9 Sudoeste 0 -- -- 96
2019-08-02 01:00:00 16.5 3 Sudoeste 5 Sudoeste 0 -- -- 96
2019-08-02 00:00:00 16.9 2 Sur -- -- 0 -- -- 96
2019-08-01 23:00:00 17.1 0 Calma 8 Sudeste 0 -- -- 94
2019-08-01 22:00:00 17.8 0 Calma 7 Norte 0 -- -- 91
2019-08-01 21:00:00 19.3 6 Norte 14 Norte 0 -- -- 85
2019-08-01 20:00:00 19.9 8 Nordeste 15 Norte 0 -- -- 81
2019-08-01 19:00:00 20.3 10 Norte 18 Nordeste 0 -- -- 78
2019-08-01 18:00:00 21.7 12 Norte 18 Noroeste 0 -- -- 79
2019-08-01 17:00:00 21.5 9 Norte 17 Norte 0 -- -- 80
2019-08-01 16:00:00 21.2 8 Norte 18 Noroeste 0 -- -- 80
2019-08-01 15:00:00 20.8 11 Norte 17 Norte 0 -- -- 83
2019-08-01 14:00:00 20.9 8 Norte 15 Noroeste 0 -- -- 84
2019-08-01 13:00:00 20 11 Norte 16 Noroeste 0 -- -- 84
2019-08-01 12:00:00 19.8 4 Sur 13 Sur 0 -- -- 86
2019-08-01 11:00:00 17.5 8 Sur 14 Sudoeste 0 -- -- 98
2019-08-01 10:00:00 16 8 Sudoeste 16 Sudoeste 0 -- -- 99
2019-08-01 09:00:00 15.4 9 Sudoeste 17 Sudoeste 0.2 -- -- 99
2019-08-01 08:00:00 15.2 9 Sudoeste 15 Sudoeste 0 -- -- 99
2019-08-01 07:00:00 15.1 8 Sudoeste 16 Sudoeste 0 -- -- 99
2019-08-01 06:00:00 15.3 9 Sudoeste 15 Oeste 0 -- -- 98
2019-08-01 05:00:00 15.7 7 Sudoeste 11 Sudoeste 0 -- -- 93
2019-08-01 04:00:00 16.2 3 Sur 12 Sudoeste 0 -- -- 91
2019-08-01 03:00:00 15.9 7 Sudoeste 12 Sudoeste 0 -- -- 91
2019-08-01 02:00:00 16.3 3 Sudoeste 9 Sudoeste 0 -- -- 88
2019-08-01 01:00:00 16.3 0 Calma 6 Este 0 -- -- 88
2019-08-01 00:00:00 16.4 3 Sur 7 Este 0 -- -- 87
2019-07-31 23:00:00 17 5 Este 12 Este 0 -- -- 83
2019-07-31 22:00:00 17.4 0 Calma 8 Nordeste 0 -- -- 83
2019-07-31 21:00:00 18.5 4 Nordeste 12 Nordeste 0 -- -- 77
2019-07-31 20:00:00 19.2 8 Nordeste 18 Nordeste 0 -- -- 76
2019-07-31 19:00:00 19.7 11 Nordeste 22 Nordeste 0 -- -- 74
2019-07-31 18:00:00 20 12 Nordeste 31 Nordeste 0 -- -- 73
2019-07-31 17:00:00 20.3 13 Nordeste 33 Nordeste 0 -- -- 71
2019-07-31 16:00:00 21.3 14 Norte 31 Nordeste 0 -- -- 68
2019-07-31 15:00:00 21.6 16 Norte 33 Nordeste 0 -- -- 68
2019-07-31 14:00:00 21.6 17 Norte 29 Norte 0 -- -- 63
2019-07-31 13:00:00 21.3 10 Nordeste 21 Nordeste 0 -- -- 66
2019-07-31 12:00:00 21.1 10 Nordeste 17 Nordeste 0 -- -- 64
2019-07-31 11:00:00 20.4 5 Nordeste 14 Nordeste 0 -- -- 62
2019-07-31 10:00:00 17.1 5 Sur 11 Sur 0 -- -- 84
2019-07-31 09:00:00 15 4 Sur 13 Sudoeste 0 -- -- 87
2019-07-31 08:00:00 13.4 9 Sudoeste 13 Sudoeste 0 -- -- 92
2019-07-31 07:00:00 13.3 8 Sudoeste 13 Sur 0 -- -- 93
2019-07-31 06:00:00 13.4 5 Sudoeste 10 Sudoeste 0 -- -- 92
2019-07-31 05:00:00 13.7 6 Sudoeste 10 Sur 0 -- -- 91
2019-07-31 04:00:00 14.6 6 Sudoeste 13 Sudoeste 0 -- -- 91
2019-07-31 03:00:00 15.4 5 Sudoeste 12 Sudoeste 0 -- -- 84
2019-07-31 02:00:00 15.7 6 Sudoeste 12 Sudoeste 0 -- -- 85
2019-07-31 01:00:00 16 5 Sudoeste 12 Sudoeste 0 -- -- 84
2019-07-31 00:00:00 16 7 Sudoeste 13 Sudoeste 0 -- -- 85
2019-07-30 23:00:00 16.2 8 Sudoeste 14 Sudoeste 0 -- -- 85
2019-07-30 22:00:00 16.8 6 Sudoeste 12 Sudoeste 0 -- -- 82
2019-07-30 21:00:00 17.7 3 Noroeste 14 Noroeste 0 -- -- 74
2019-07-30 20:00:00 18.3 9 Norte 19 Noroeste 0 -- -- 73
2019-07-30 19:00:00 18.5 8 Norte 23 Noroeste 0 -- -- 76
2019-07-30 18:00:00 19.4 9 Noroeste 22 Noroeste 0 -- -- 70
2019-07-30 17:00:00 19.4 14 Noroeste 27 Noroeste 0 -- -- 67
2019-07-30 16:00:00 19.3 12 Noroeste 29 Norte 0 -- -- 66
2019-07-30 15:00:00 20.5 18 Noroeste 32 Noroeste 0 -- -- 65
2019-07-30 14:00:00 20.4 14 Noroeste 31 Noroeste 0 -- -- 61
2019-07-30 13:00:00 19.4 15 Noroeste 31 Noroeste 0 -- -- 68
2019-07-30 12:00:00 18.5 15 Noroeste 30 Oeste 0 -- -- 66
2019-07-30 11:00:00 19.6 11 Noroeste 28 Noroeste 0 -- -- 59
2019-07-30 10:00:00 18 7 Oeste 17 Oeste 0 -- -- 62
2019-07-30 09:00:00 15.8 7 Sur 12 Sur 0 -- -- 83
2019-07-30 08:00:00 15.3 5 Sudoeste 13 Oeste 0 -- -- 76
2019-07-30 07:00:00 15.6 4 Sudoeste 16 Sudoeste 0 -- -- 71
2019-07-30 06:00:00 16 4 Oeste 18 Oeste 0 -- -- 70
2019-07-30 05:00:00 16.7 6 Oeste 23 Oeste 0 -- -- 69
2019-07-30 04:00:00 17.2 7 Oeste 21 Noroeste 0 -- -- 74
2019-07-30 03:00:00 17.5 8 Noroeste 27 Noroeste 0 -- -- 75
2019-07-30 02:00:00 17.6 9 Noroeste 24 Oeste 0 -- -- 76
2019-07-30 01:00:00 17.9 9 Oeste 28 Noroeste 0 -- -- 78
2019-07-30 00:00:00 18 12 Oeste 28 Noroeste 0 -- -- 79
2019-07-29 23:00:00 18 12 Noroeste 35 Noroeste 0 -- -- 78
2019-07-29 22:00:00 18.5 10 Noroeste 26 Noroeste 0 -- -- 76
2019-07-29 21:00:00 18.6 9 Noroeste 26 Oeste 0 -- -- 76
2019-07-29 20:00:00 19.1 8 Noroeste 24 Norte 0 -- -- 75
2019-07-29 19:00:00 19.9 9 Noroeste 22 Noroeste 0 -- -- 74
2019-07-29 18:00:00 19.9 9 Noroeste 26 Noroeste 0 -- -- 76
2019-07-29 17:00:00 19.9 10 Noroeste 21 Oeste 0 -- -- 74
2019-07-29 16:00:00 20.1 6 Noroeste 21 Norte 0 -- -- 78
2019-07-29 15:00:00 20 10 Noroeste 24 Noroeste 0 -- -- 79
2019-07-29 14:00:00 20.2 14 Norte 33 Norte 0 -- -- 78
2019-07-29 13:00:00 19.8 21 Norte 31 Norte 0 -- -- 79
2019-07-29 12:00:00 21.9 14 Norte 21 Norte 0 -- -- 77
2019-07-29 11:00:00 21.7 7 Norte 15 Noroeste 0 -- -- 73
2019-07-29 10:00:00 21.2 5 Sudoeste 14 Sudoeste 0 -- -- 83
2019-07-29 09:00:00 18.7 9 Sudoeste 14 Sudoeste 0 -- -- 88
2019-07-29 08:00:00 17.3 6 Sudoeste 17 Oeste 0 -- -- 89
2019-07-29 07:00:00 17 8 Sudoeste 15 Sudoeste 0 -- -- 89
2019-07-29 06:00:00 15.4 9 Sur 12 Sudoeste 0 -- -- 96
2019-07-29 05:00:00 15.7 4 Sur 14 Sudoeste 0 -- -- 94
2019-07-29 04:00:00 15.3 9 Sudoeste 13 Sudoeste 0 -- -- 98
2019-07-29 03:00:00 15.4 9 Sur 14 Sur 0 -- -- 96
2019-07-29 02:00:00 16.2 6 Sur 11 Sur 0 -- -- 93
2019-07-29 01:00:00 16.4 8 Sudoeste 12 Sudoeste 0 -- -- 90
2019-07-29 00:00:00 16.9 6 Sur 8 Este 0 -- -- 87
2019-07-28 23:00:00 17.7 4 Sudeste 12 Este 0 -- -- 82
2019-07-28 22:00:00 18.6 6 Este 14 Nordeste 0 -- -- 79
2019-07-28 21:00:00 20.2 7 Nordeste 18 Nordeste 0 -- -- 74
2019-07-28 20:00:00 21.6 9 Nordeste 23 Nordeste 0 -- -- 70
2019-07-28 19:00:00 22.1 10 Norte 21 Norte 0 -- -- 66
2019-07-28 18:00:00 22.4 10 Nordeste 21 Norte 0 -- -- 64
2019-07-28 17:00:00 22.4 8 Nordeste 18 Nordeste 0 -- -- 67
2019-07-28 16:00:00 21.8 10 Norte 21 Norte 0 -- -- 70
2019-07-28 15:00:00 21.8 13 Norte 23 Norte 0 -- -- 74
2019-07-28 14:00:00 21.5 14 Norte 21 Noroeste 0 -- -- 73
2019-07-28 13:00:00 20.9 12 Noroeste 19 Noroeste 0 -- -- 73
2019-07-28 12:00:00 21.1 5 Norte 13 Norte 0 -- -- 73
2019-07-28 11:00:00 18.8 6 Sur 15 Sudoeste 0 -- -- 80
2019-07-28 10:00:00 16.9 9 Sudoeste 13 Sudoeste 0 -- -- 88
2019-07-28 09:00:00 14.9 6 Sudoeste 11 Sudoeste 0 -- -- 99
2019-07-28 08:00:00 14.3 7 Sur 9 Sur 0.2 -- -- 99
2019-07-28 07:00:00 15 4 Noroeste 11 Noroeste 0 -- -- 98
2019-07-28 06:00:00 14.7 3 Sudoeste 13 Sudoeste 0 -- -- 98
2019-07-28 05:00:00 14.6 7 Sudoeste 14 Oeste 1 -- -- 99
2019-07-28 04:00:00 14.8 6 Sudoeste 15 Oeste 2.2 -- -- 98
2019-07-28 03:00:00 15 8 Sudoeste 21 Oeste 0 -- -- 96
2019-07-28 02:00:00 15.2 6 Oeste 21 Oeste 1.4 -- -- 97
2019-07-28 01:00:00 14.9 5 Sudoeste 16 Sudoeste 0.2 -- -- 100
2019-07-28 00:00:00 15.3 4 Este 14 Sudoeste 4.6 -- -- 99
2019-07-27 23:00:00 15.4 8 Sudoeste 15 Sudoeste 0 -- -- 99
2019-07-26 12:00:00 -- -- -- -- -- -- -- -- --
2019-07-26 11:00:00 16.9 4 Sudoeste 14 Oeste 0.8 -- -- 100
2019-07-26 10:00:00 16.7 6 Sudoeste 16 Oeste 2.6 -- -- 100
2019-07-26 09:00:00 16.7 8 Noroeste 19 Noroeste 1.6 -- -- 100
2019-07-26 08:00:00 17.1 0 Calma 12 Norte 0.8 -- -- 100
2019-07-26 07:00:00 17 9 Norte 22 Noroeste 0.8 -- -- 100
2019-07-26 06:00:00 17.3 10 Noroeste 21 Norte 1.4 -- -- 100
2019-07-26 05:00:00 17.3 10 Noroeste 22 Norte 0.6 -- -- 100
2019-07-26 04:00:00 17.6 17 Norte 26 Norte 2.4 -- -- 100
2019-07-26 03:00:00 18.4 7 Noroeste 21 Noroeste 0.6 -- -- 100
2019-07-26 02:00:00 18.8 2 Sudoeste 8 Sudoeste 0.4 -- -- 99
2019-07-26 01:00:00 18.9 3 Sur 9 Sudoeste 0.2 -- -- 98
2019-07-26 00:00:00 19.2 3 Sudoeste 19 Noroeste 0 -- -- 97
2019-07-25 23:00:00 19.4 9 Noroeste 26 Norte 0 -- -- 96
2019-07-25 22:00:00 20 14 Noroeste 28 Noroeste 0 -- -- 95
2019-07-25 21:00:00 21.6 14 Noroeste 29 Noroeste 0 -- -- 91
2019-07-25 20:00:00 22.5 10 Noroeste 22 Noroeste 0 -- -- 88
2019-07-25 19:00:00 24.3 9 Noroeste 20 Noroeste 0 -- -- 79
2019-07-25 18:00:00 24.7 6 Noroeste 16 Norte 0 -- -- 79
2019-07-25 17:00:00 24 9 Norte 15 Noroeste 0 -- -- 82
2019-07-25 16:00:00 23.3 8 Norte 18 Noroeste 0 -- -- 85
2019-07-25 15:00:00 24 15 Norte 26 Noroeste 0 -- -- 83
2019-07-25 14:00:00 24.2 18 Norte 26 Norte 0 -- -- 82
2019-07-25 13:00:00 25.5 9 Noroeste 18 Norte 0 -- -- 78
2019-07-25 12:00:00 25.1 5 Norte 10 Sur 0 -- -- 84
2019-07-25 11:00:00 22.8 3 Noroeste 9 Noroeste 0 -- -- 90
2019-07-25 10:00:00 21.8 0 Calma 8 Oeste 0 -- -- 95
2019-07-25 09:00:00 21.3 0 Calma 9 Oeste 0 -- -- 98
2019-07-25 08:00:00 20.9 3 Noroeste 6 Oeste 0 -- -- 99
2019-07-25 07:00:00 20.8 4 Noroeste 7 Norte 0 -- -- 99
2019-07-25 06:00:00 20.9 0 Calma 10 Sudeste 0 -- -- 98
2019-07-25 05:00:00 21.1 0 Calma 5 Noroeste 0 -- -- 97
2019-07-25 04:00:00 21.1 3 Noroeste 8 Noroeste 0 -- -- 97
2019-07-25 03:00:00 21.2 4 Sur 12 Oeste 0 -- -- 97
2019-07-25 02:00:00 21.2 5 Noroeste 14 Noroeste 0 -- -- 98
2019-07-25 01:00:00 21.4 5 Oeste 12 Oeste 0 -- -- 97
2019-07-25 00:00:00 21.5 4 Noroeste 14 Noroeste 0 -- -- 96
2019-07-24 23:00:00 21.7 6 Noroeste 15 Oeste 0 -- -- 96
2019-07-24 22:00:00 21.8 4 Oeste 15 Norte 0 -- -- 96
2019-07-24 21:00:00 22.3 10 Norte 20 Noroeste 0 -- -- 94
2019-07-24 20:00:00 23.6 14 Norte 21 Norte 0 -- -- 88
2019-07-24 19:00:00 25.9 8 Norte 15 Noroeste 0 -- -- 80
2019-07-24 18:00:00 26.3 9 Norte 19 Norte 0 -- -- 78
2019-07-24 17:00:00 26.8 12 Norte 21 Norte 0 -- -- 79
2019-07-24 16:00:00 26.7 11 Norte 21 Norte 0 -- -- 77
2019-07-24 15:00:00 26.6 7 Nordeste 14 Nordeste 0 -- -- 78
2019-07-24 14:00:00 25.1 11 Norte 19 Noroeste 0 -- -- 81
2019-07-24 13:00:00 24.7 13 Norte 21 Norte 0 -- -- 84
2019-07-24 12:00:00 24.8 7 Norte 15 Nordeste 0 -- -- 80
2019-07-24 11:00:00 23.3 8 Este 17 Este 0 -- -- 89
2019-07-24 10:00:00 21.2 0 Calma 2 Noroeste 0 -- -- 96
2019-07-24 09:00:00 20.3 0 Calma 4 Norte 0 -- -- 98
2019-07-24 08:00:00 19.7 2 Sudoeste 4 Sudoeste 0 -- -- 99
2019-07-24 07:00:00 19.7 0 Calma 6 Sudeste 0 -- -- 98
2019-07-24 06:00:00 19.7 3 Sudoeste 12 Oeste 0 -- -- 98
2019-07-24 05:00:00 19.9 4 Sudoeste 15 Noroeste 0 -- -- 99
2019-07-24 04:00:00 20 7 Noroeste 22 Sudoeste 0 -- -- 99
2019-07-24 03:00:00 19.9 10 Oeste 30 Oeste 0 -- -- 97
2019-07-24 02:00:00 19.8 5 Este 12 Este 0 -- -- 99
2019-07-24 01:00:00 19.8 10 Sur 21 Sudeste 0 -- -- 99
2019-07-24 00:00:00 19.8 4 Sur 23 Oeste 0 -- -- 98
2019-07-23 23:00:00 20.2 11 Sudoeste 26 Sur 0.8 -- -- 98
2019-07-23 22:00:00 20.1 5 Sudoeste 23 Norte 0 -- -- 99
2019-07-23 21:00:00 20.6 7 Noroeste 21 Oeste 0.8 -- -- 97
2019-07-23 20:00:00 21.2 9 Noroeste 34 Noroeste 0 -- -- 94
2019-07-23 19:00:00 21.7 22 Noroeste 36 Noroeste 0 -- -- 91
2019-07-23 18:00:00 25 13 Noroeste 30 Noroeste 0 -- -- 79
2019-07-23 17:00:00 24.1 12 Noroeste 35 Norte 0 -- -- 86
2019-07-23 16:00:00 24.6 19 Norte 32 Noroeste 0 -- -- 84
2019-07-23 15:00:00 25.6 10 Norte 21 Norte 0 -- -- 82
2019-07-23 14:00:00 25.5 10 Noroeste 20 Norte 0 -- -- 83
2019-07-23 13:00:00 23.2 11 Noroeste 35 Norte 0 -- -- 90
2019-07-23 12:00:00 21.9 13 Norte 25 Noroeste 0 -- -- 93
2019-07-23 11:00:00 26.4 10 Norte 19 Noroeste 0 -- -- 77
2019-07-23 10:00:00 24.9 5 Sudoeste 14 Sudoeste 0 -- -- 65
2019-07-23 09:00:00 21.3 2 Sudoeste 8 Sudoeste 0 -- -- 89
2019-07-23 08:00:00 19.7 2 Oeste 10 Sudoeste 0 -- -- 95
2019-07-23 07:00:00 19 0 Calma 6 Norte 0 -- -- 94
2019-07-23 06:00:00 19.3 0 Calma 10 Sudoeste 0 -- -- 91
2019-07-23 05:00:00 19.2 3 Este 13 Sudoeste 0 -- -- 93
2019-07-23 04:00:00 19.5 6 Sudoeste 15 Sudeste 0 -- -- 96
2019-07-23 03:00:00 19.7 11 Sudeste 19 Sudeste 0 -- -- 98
2019-07-23 02:00:00 19.8 3 Sur 17 Sudoeste 0 -- -- 98
2019-07-23 01:00:00 19.6 7 Sur 14 Sur 0 -- -- 99
2019-07-23 00:00:00 19.8 5 Sudeste 16 Norte 0 -- -- 98
2019-07-22 23:00:00 20.6 8 Norte 31 Sur 0.4 -- -- 94
2019-07-22 22:00:00 20.8 3 Noroeste 14 Norte 0 -- -- 94
2019-07-22 21:00:00 21.7 3 Norte 11 Noroeste 0 -- -- 90
2019-07-22 20:00:00 22.8 8 Norte 13 Noroeste 0 -- -- 83
2019-07-22 19:00:00 23.8 8 Norte 19 Noroeste 0 -- -- 79
2019-07-22 18:00:00 24.7 9 Norte 18 Noroeste 0 -- -- 76
2019-07-22 17:00:00 25.5 12 Norte 19 Norte 0 -- -- 74
2019-07-22 16:00:00 25.4 9 Norte 17 Norte 0 -- -- 78
2019-07-22 15:00:00 24.7 10 Norte 19 Norte 0 -- -- 79
2019-07-22 14:00:00 24.1 11 Norte 23 Norte 0 -- -- 80
2019-07-22 13:00:00 24.6 16 Norte 26 Noroeste 0 -- -- 78
2019-07-22 12:00:00 25.5 5 Sur 11 Nordeste 0 -- -- 72
2019-07-22 11:00:00 23.7 3 Sur 9 Nordeste 0 -- -- 78
2019-07-22 10:00:00 22.4 4 Nordeste 10 Este 0 -- -- 84
2019-07-22 09:00:00 21.1 4 Este 10 Este 0 -- -- 89
2019-07-22 08:00:00 19.9 2 Este 12 Este 0 -- -- 95
2019-07-22 07:00:00 19.5 4 Este 10 Este 0 -- -- 93
2019-07-22 06:00:00 19.6 5 Este 10 Este 0 -- -- 93
2019-07-22 05:00:00 19.7 3 Sur 14 Este 0 -- -- 93
2019-07-22 04:00:00 19.7 4 Nordeste 8 Nordeste 0 -- -- 93
2019-07-22 03:00:00 19.7 4 Este 8 Este 0 -- -- 92
2019-07-22 02:00:00 19.8 0 Calma 4 Este 0 -- -- 93
2019-07-22 01:00:00 19.9 2 Nordeste 7 Este 0 -- -- 93
2019-07-22 00:00:00 20 4 Este 9 Este 0 -- -- 93
2019-07-21 23:00:00 20.2 4 Nordeste 17 Nordeste 0 -- -- 93
2019-07-21 22:00:00 20.5 9 Nordeste 18 Nordeste 0 -- -- 92
2019-07-21 21:00:00 21.2 7 Norte 14 Norte 0 -- -- 87
2019-07-21 20:00:00 21.9 4 Nordeste 13 Nordeste 0 -- -- 82
2019-07-21 19:00:00 21.6 6 Nordeste 16 Nordeste 0 -- -- 84
2019-07-21 18:00:00 21.4 7 Nordeste 26 Nordeste 0 -- -- 86
2019-07-21 17:00:00 22 14 Norte 28 Norte 0 -- -- 83
2019-07-21 16:00:00 22.3 11 Norte 24 Norte 0 -- -- 86
2019-07-21 15:00:00 22.4 12 Norte 22 Norte 0 -- -- 83
2019-07-21 14:00:00 21.6 8 Nordeste 14 Nordeste 0 -- -- 88
2019-07-21 13:00:00 21.4 6 Nordeste 15 Norte 0 -- -- 91
2019-07-21 12:00:00 20 8 Nordeste 18 Nordeste 0 -- -- 97
2019-07-21 11:00:00 19.7 4 Sur 6 Sur 0 -- -- 100
2019-07-21 10:00:00 19.2 3 Norte 6 Norte 0 -- -- 100
2019-07-21 09:00:00 18.7 0 Calma 4 Norte 0 -- -- 100
2019-07-21 08:00:00 18.3 0 Calma 4 Sur 0 -- -- 100
2019-07-21 07:00:00 17.9 0 Calma 5 Sudoeste 0 -- -- 100
2019-07-21 06:00:00 17.8 3 Sur 4 Sur 0 -- -- 100
2019-07-21 05:00:00 17.9 0 Calma 4 Sudeste 0 -- -- 100
2019-07-21 04:00:00 18.3 3 Sur 9 Sudoeste 0 -- -- 99
2019-07-21 03:00:00 18.3 5 Sudoeste 13 Sudoeste 0 -- -- 100
2019-07-21 02:00:00 18.4 8 Sudoeste 14 Sudoeste 0 -- -- 99
2019-07-21 01:00:00 18.4 6 Sudoeste 10 Sudoeste 0 -- -- 99
2019-07-21 00:00:00 18.5 3 Noroeste 8 Noroeste 0 -- -- 98